Time;durP1;ratioP1;P1;durP2;ratioP2;P2;SDS_P1;SDS_P2;PMS_P1;PMS_P2;Temp;Humidity;BMP_temperature;BMP_pressure;BME280_temperature;BME280_humidity;BME280_pressure;Samples;Min_cycle;Max_cycle;Signal;HPM_P1;HPM_P2
2023/01/24 00:01:12;;;;;;;24.65;14.40;;;3.60;99.90;;;;;;5050289;28;20056;-93
2023/01/24 00:03:37;;;;;;;26.45;15.25;;;3.60;99.90;;;;;;5037705;28;20524;-92
2023/01/24 00:06:03;;;;;;;25.35;15.05;;;3.60;99.90;;;;;;5034208;28;20046;-92
2023/01/24 00:08:29;;;;;;;25.85;14.55;;;3.60;99.90;;;;;;5037185;28;20047;-92
2023/01/24 00:11:06;;;;;;;24.52;14.82;;;3.60;99.90;;;;;;5073588;28;20056;-93
2023/01/24 00:13:32;;;;;;;22.42;13.88;;;3.60;99.90;;;;;;5042387;28;20045;-92
2023/01/24 00:16:18;;;;;;;23.65;14.63;;;3.60;99.90;;;;;;5038735;28;20045;-93
2023/01/24 00:18:44;;;;;;;23.50;14.88;;;3.60;99.90;;;;;;5039971;28;20060;-92
2023/01/24 00:21:18;;;;;;;23.35;14.63;;;3.60;99.90;;;;;;5066859;28;20124;-93
2023/01/24 00:23:46;;;;;;;21.83;14.15;;;3.60;99.90;;;;;;5037852;28;20471;-93
2023/01/24 00:26:13;;;;;;;22.90;14.80;;;3.50;99.90;;;;;;5042767;28;20392;-92
2023/01/24 00:28:39;;;;;;;25.63;15.18;;;3.50;99.90;;;;;;5032364;28;20024;-93
2023/01/24 00:31:05;;;;;;;26.90;15.27;;;3.50;99.90;;;;;;5071048;28;20353;-93
2023/01/24 00:33:31;;;;;;;24.75;14.80;;;3.50;99.90;;;;;;5056537;28;20040;-92
2023/01/24 00:35:56;;;;;;;22.88;13.18;;;3.50;99.90;;;;;;5057761;28;20217;-93
2023/01/24 00:38:22;;;;;;;27.65;15.30;;;3.50;99.90;;;;;;5051170;28;20060;-93
2023/01/24 00:40:48;;;;;;;24.73;14.73;;;3.50;99.90;;;;;;5031308;28;20047;-92
2023/01/24 00:43:14;;;;;;;24.40;14.57;;;3.50;99.90;;;;;;5033435;28;20116;-93
2023/01/24 00:45:40;;;;;;;25.00;15.00;;;3.50;99.90;;;;;;5039518;28;20102;-92
2023/01/24 00:48:07;;;;;;;24.02;14.25;;;3.50;99.90;;;;;;5039511;28;20025;-92
2023/01/24 00:50:33;;;;;;;25.05;14.27;;;3.50;99.90;;;;;;5045151;28;20025;-92
2023/01/24 00:53:00;;;;;;;23.85;14.35;;;3.50;99.90;;;;;;5042548;28;20041;-93
2023/01/24 00:55:25;;;;;;;26.40;14.52;;;3.50;99.90;;;;;;5038543;28;20032;-94
2023/01/24 00:57:51;;;;;;;22.38;13.80;;;3.50;99.90;;;;;;5036630;28;20025;-93
2023/01/24 01:00:17;;;;;;;20.63;12.35;;;3.40;99.90;;;;;;5043456;28;20397;-93
2023/01/24 01:02:42;;;;;;;17.98;11.57;;;3.40;99.90;;;;;;5039592;28;20049;-93
2023/01/24 01:05:08;;;;;;;18.85;11.45;;;3.40;99.90;;;;;;5042834;28;20127;-93
2023/01/24 01:07:35;;;;;;;21.88;12.98;;;3.40;99.90;;;;;;5035605;28;20221;-93
2023/01/24 01:10:00;;;;;;;20.17;12.13;;;3.40;99.90;;;;;;5039447;28;20036;-93
2023/01/24 01:12:26;;;;;;;21.95;12.45;;;3.40;99.90;;;;;;5071334;28;20025;-93
2023/01/24 01:14:51;;;;;;;17.63;11.40;;;3.40;99.90;;;;;;5039149;28;20052;-92
2023/01/24 01:17:17;;;;;;;18.63;12.23;;;3.40;99.90;;;;;;5041243;28;20044;-93
2023/01/24 01:19:43;;;;;;;20.50;12.63;;;3.40;99.90;;;;;;5064739;28;20496;-93
2023/01/24 01:22:08;;;;;;;21.45;11.65;;;3.40;99.90;;;;;;5038500;28;20127;-93
2023/01/24 01:24:34;;;;;;;21.98;12.40;;;3.40;99.90;;;;;;5038203;28;20071;-93
2023/01/24 01:27:00;;;;;;;23.40;12.75;;;3.40;99.90;;;;;;5071192;28;20047;-93
2023/01/24 01:29:25;;;;;;;21.98;13.07;;;3.50;99.90;;;;;;5076462;28;20029;-92
2023/01/24 01:31:51;;;;;;;24.35;13.35;;;3.40;99.90;;;;;;5072472;28;20032;-92
2023/01/24 01:34:17;;;;;;;23.85;14.10;;;3.40;99.90;;;;;;5064225;28;20049;-93
2023/01/24 01:36:42;;;;;;;22.10;13.30;;;3.40;99.90;;;;;;5038268;28;20061;-93
2023/01/24 01:39:08;;;;;;;23.48;13.52;;;3.40;99.90;;;;;;5067792;28;20074;-92
2023/01/24 01:41:33;;;;;;;24.23;14.13;;;3.40;99.90;;;;;;5039795;28;20024;-92
2023/01/24 01:47:35;;;;;;;22.98;12.68;;;3.40;99.90;;;;;;5045156;28;20601;-93
2023/01/24 01:50:06;;;;;;;22.13;12.52;;;3.40;99.90;;;;;;5034331;28;20029;-93
2023/01/24 01:52:36;;;;;;;22.15;11.95;;;3.40;99.90;;;;;;5045834;28;20037;-93
2023/01/24 01:55:16;;;;;;;23.60;12.35;;;3.40;99.90;;;;;;5047689;28;20039;-93
2023/01/24 01:57:43;;;;;;;19.98;11.23;;;3.40;99.90;;;;;;5043124;28;20036;-93
2023/01/24 02:00:17;;;;;;;21.67;11.88;;;3.40;99.90;;;;;;5037673;28;20059;-93
2023/01/24 02:02:47;;;;;;;23.80;13.15;;;3.40;99.90;;;;;;5038731;28;20040;-93
2023/01/24 02:05:16;;;;;;;23.67;13.52;;;3.40;99.90;;;;;;5041044;28;20116;-93
2023/01/24 02:07:58;;;;;;;26.60;14.40;;;3.40;99.90;;;;;;5038641;28;20025;-93
2023/01/24 02:11:37;;;;;;;23.30;14.07;;;3.40;99.90;;;;;;5030812;28;20147;-93
2023/01/24 02:13:11;;;;;;;20.40;11.65;;;3.40;99.90;;;;;;5054360;28;20507;-93
2023/01/24 02:18:21;;;;;;;25.38;15.63;;;3.40;99.90;;;;;;5047235;28;20056;-93
2023/01/24 02:20:48;;;;;;;28.42;16.52;;;3.30;99.90;;;;;;5035840;28;20025;-92
2023/01/24 02:23:51;;;;;;;27.77;16.23;;;3.30;99.90;;;;;;5070677;28;20060;-93
2023/01/24 02:26:20;;;;;;;27.70;14.63;;;3.30;99.90;;;;;;5042132;28;20106;-94
2023/01/24 02:29:08;;;;;;;26.38;15.30;;;3.30;99.90;;;;;;5037405;28;20082;-91
2023/01/24 02:31:58;;;;;;;26.88;15.02;;;3.30;99.90;;;;;;5038375;28;20033;-93
2023/01/24 02:34:25;;;;;;;23.75;13.68;;;3.20;99.90;;;;;;5041159;28;20033;-93
2023/01/24 02:37:06;;;;;;;26.40;14.48;;;3.20;99.90;;;;;;5041974;28;20028;-92
2023/01/24 02:39:55;;;;;;;27.67;15.75;;;3.20;99.90;;;;;;5041874;28;20051;-93
2023/01/24 02:42:31;;;;;;;27.40;16.38;;;3.20;99.90;;;;;;5041786;28;20025;-92
2023/01/24 02:45:07;;;;;;;25.23;15.50;;;3.20;99.90;;;;;;5038455;28;20040;-92
2023/01/24 02:47:38;;;;;;;25.02;14.32;;;3.20;99.90;;;;;;5042230;28;20047;-93
2023/01/24 02:50:06;;;;;;;27.40;15.27;;;3.20;99.90;;;;;;5041288;28;20056;-93
2023/01/24 02:55:16;;;;;;;28.20;15.07;;;3.20;99.90;;;;;;5059361;28;20059;-93
2023/01/24 03:00:25;;;;;;;27.75;15.70;;;3.20;99.90;;;;;;5059678;28;20083;-93
2023/01/24 03:02:51;;;;;;;28.60;16.30;;;3.20;99.90;;;;;;5041749;28;20021;-93
2023/01/24 03:05:16;;;;;;;25.15;14.63;;;3.20;99.90;;;;;;5045298;28;20051;-92
2023/01/24 03:07:44;;;;;;;25.35;14.65;;;3.20;99.90;;;;;;5045756;28;20171;-91
2023/01/24 03:10:18;;;;;;;27.05;15.52;;;3.20;99.90;;;;;;5074401;28;20052;-92
2023/01/24 03:35:00;;;;;;;28.02;15.43;;;3.10;99.90;;;;;;5059005;28;20098;-93
2023/01/24 03:40:13;;;;;;;29.38;15.38;;;3.10;99.90;;;;;;5054063;28;20085;-91
2023/01/24 03:42:50;;;;;;;25.88;14.32;;;3.10;99.90;;;;;;5038377;28;20045;-93
2023/01/24 03:45:22;;;;;;;27.58;15.07;;;3.10;99.90;;;;;;5040798;28;20118;-93
2023/01/24 03:47:56;;;;;;;23.75;13.85;;;3.00;99.90;;;;;;5044796;28;20405;-92
2023/01/24 03:53:08;;;;;;;26.00;15.25;;;3.10;99.90;;;;;;5056984;28;20091;-94
2023/01/24 03:55:34;;;;;;;28.08;14.55;;;3.10;99.90;;;;;;5038276;28;20084;-92
2023/01/24 03:57:59;;;;;;;24.73;14.63;;;3.10;99.90;;;;;;5040274;28;20056;-93
2023/01/24 04:00:25;;;;;;;25.88;16.05;;;3.10;99.90;;;;;;5042044;28;20032;-92
2023/01/24 04:02:51;;;;;;;27.08;16.35;;;3.10;99.90;;;;;;5073329;28;20036;-92
2023/01/24 04:05:17;;;;;;;26.13;16.08;;;3.00;99.90;;;;;;5035874;28;20080;-93
2023/01/24 04:07:42;;;;;;;26.17;15.77;;;3.00;99.90;;;;;;5058222;28;20468;-92
2023/01/24 04:10:09;;;;;;;27.13;15.57;;;2.90;99.90;;;;;;5041618;28;20024;-92
2023/01/24 04:12:35;;;;;;;28.27;15.88;;;2.90;99.90;;;;;;5071308;28;20028;-93
2023/01/24 04:15:00;;;;;;;29.42;16.15;;;2.90;99.90;;;;;;5038014;28;20025;-92
2023/01/24 04:17:26;;;;;;;27.50;15.50;;;3.00;99.90;;;;;;5040094;28;20017;-92
2023/01/24 04:19:51;;;;;;;28.85;15.90;;;3.00;99.90;;;;;;5073075;28;20033;-92
2023/01/24 04:22:17;;;;;;;25.50;14.98;;;2.90;99.90;;;;;;5037888;28;20033;-92
2023/01/24 04:24:44;;;;;;;28.70;16.13;;;3.00;99.90;;;;;;5036019;28;20025;-92
2023/01/24 04:27:10;;;;;;;24.98;15.25;;;3.00;99.90;;;;;;5038370;28;20025;-91
2023/01/24 04:29:36;;;;;;;28.13;16.08;;;3.00;99.90;;;;;;5040193;28;20033;-93
2023/01/24 04:32:01;;;;;;;25.92;14.88;;;3.00;99.90;;;;;;5047329;28;20063;-93
2023/01/24 04:34:27;;;;;;;27.65;16.02;;;2.90;99.90;;;;;;5030700;28;20037;-93
2023/01/24 04:36:53;;;;;;;28.38;16.50;;;2.90;99.90;;;;;;5028250;28;20025;-94
2023/01/24 04:39:19;;;;;;;27.05;16.08;;;3.00;99.90;;;;;;5045921;28;20104;-92
2023/01/24 04:41:45;;;;;;;28.77;17.13;;;2.90;99.90;;;;;;5044051;28;20056;-93
2023/01/24 04:44:10;;;;;;;26.95;15.95;;;3.00;99.90;;;;;;5039283;28;20126;-92
2023/01/24 04:46:36;;;;;;;29.55;16.70;;;3.00;99.90;;;;;;5039642;28;20032;-93
2023/01/24 04:49:02;;;;;;;31.05;16.63;;;2.90;99.90;;;;;;5046214;28;20029;-94
2023/01/24 04:51:27;;;;;;;26.83;16.08;;;3.00;99.90;;;;;;5039044;28;20041;-93
2023/01/24 04:53:53;;;;;;;25.00;14.88;;;3.00;99.90;;;;;;5039974;28;20105;-92
2023/01/24 04:56:18;;;;;;;31.48;18.70;;;3.00;99.90;;;;;;5038547;28;20136;-92
2023/01/24 04:58:44;;;;;;;28.65;17.35;;;2.90;99.90;;;;;;5078286;28;20035;-92
2023/01/24 05:01:09;;;;;;;30.27;17.90;;;2.90;99.90;;;;;;5047487;28;20023;-93
2023/01/24 05:03:35;;;;;;;30.70;17.40;;;2.90;99.90;;;;;;5072437;28;20085;-92
2023/01/24 05:06:00;;;;;;;27.20;15.90;;;2.80;99.90;;;;;;5034676;28;20125;-92
2023/01/24 05:08:26;;;;;;;30.63;18.02;;;2.80;99.90;;;;;;5039267;28;20115;-92
2023/01/24 05:10:52;;;;;;;26.67;15.88;;;2.80;99.90;;;;;;5036970;28;20017;-92
2023/01/24 05:13:18;;;;;;;26.88;16.40;;;2.80;99.90;;;;;;5034434;28;20501;-93
2023/01/24 05:15:51;;;;;;;28.35;15.98;;;2.80;99.90;;;;;;5036118;28;20029;-92
2023/01/24 05:18:17;;;;;;;30.33;17.75;;;2.80;99.90;;;;;;5018924;28;20037;-92
2023/01/24 05:20:43;;;;;;;30.35;17.27;;;2.80;99.90;;;;;;5024376;28;20025;-92
2023/01/24 05:23:09;;;;;;;31.50;18.92;;;2.70;99.90;;;;;;5046269;28;20097;-92
2023/01/24 05:25:34;;;;;;;30.58;18.25;;;2.80;99.90;;;;;;5058986;28;20028;-93
2023/01/24 05:28:00;;;;;;;29.98;18.17;;;2.70;99.90;;;;;;5039438;28;20032;-92
2023/01/24 05:30:25;;;;;;;32.40;18.38;;;2.70;99.90;;;;;;5037915;28;20022;-92
2023/01/24 05:32:56;;;;;;;28.05;17.17;;;2.70;99.90;;;;;;5025607;28;20513;-92
2023/01/24 05:35:21;;;;;;;32.45;19.00;;;2.70;99.90;;;;;;5041356;28;20024;-92
2023/01/24 05:37:47;;;;;;;30.55;17.98;;;2.70;99.90;;;;;;5039175;28;20388;-92
2023/01/24 05:40:13;;;;;;;32.33;18.77;;;2.70;99.90;;;;;;5049513;28;20064;-91
2023/01/24 05:42:41;;;;;;;32.03;16.95;;;2.70;99.90;;;;;;5038190;28;20095;-92
2023/01/24 05:45:07;;;;;;;28.33;15.88;;;2.70;99.90;;;;;;5032768;28;20025;-93
2023/01/24 05:47:32;;;;;;;34.00;19.20;;;2.70;99.90;;;;;;5039587;28;20502;-91
2023/01/24 05:49:58;;;;;;;32.33;18.73;;;2.70;99.90;;;;;;5039802;28;20025;-94
2023/01/24 05:52:23;;;;;;;34.30;19.25;;;2.70;99.90;;;;;;5040543;28;20075;-92
2023/01/24 05:54:50;;;;;;;33.80;19.38;;;2.70;99.90;;;;;;5039791;28;20045;-91
2023/01/24 05:57:16;;;;;;;35.95;20.40;;;2.70;99.90;;;;;;5073524;28;20059;-92
2023/01/24 05:59:41;;;;;;;33.13;19.20;;;2.60;99.90;;;;;;5040187;28;20492;-91
2023/01/24 06:02:07;;;;;;;35.92;21.70;;;2.60;99.90;;;;;;5070293;28;20025;-92
2023/01/24 06:04:32;;;;;;;37.33;19.75;;;2.60;99.90;;;;;;5070689;28;20468;-92
2023/01/24 06:06:58;;;;;;;35.72;20.27;;;2.60;99.90;;;;;;5069262;28;20116;-90
2023/01/24 06:09:24;;;;;;;31.90;18.23;;;2.60;99.90;;;;;;5039441;28;20056;-96
2023/01/24 06:11:49;;;;;;;33.28;19.55;;;2.60;99.90;;;;;;5040849;28;20024;-95
2023/01/24 06:14:15;;;;;;;34.55;19.77;;;2.60;99.90;;;;;;5040135;28;20103;-95
2023/01/24 06:16:43;;;;;;;35.67;19.67;;;2.60;99.90;;;;;;5039823;28;20079;-96
2023/01/24 06:19:10;;;;;;;39.13;21.15;;;2.60;99.90;;;;;;5063802;28;20032;-95
2023/01/24 06:21:59;;;;;;;33.60;18.48;;;2.60;99.90;;;;;;5023970;28;20028;-96
2023/01/24 06:24:26;;;;;;;38.40;20.88;;;2.60;99.90;;;;;;5037077;28;20051;-95
2023/01/24 06:26:52;;;;;;;35.40;20.60;;;2.60;99.90;;;;;;5033401;28;20029;-96
2023/01/24 06:29:19;;;;;;;33.58;19.77;;;2.60;99.90;;;;;;5040019;28;20029;-95
2023/01/24 06:32:20;;;;;;;38.55;21.83;;;2.60;99.90;;;;;;5039251;28;20040;-95
2023/01/24 06:35:23;;;;;;;37.03;21.17;;;2.60;99.90;;;;;;5039972;28;20071;-95
2023/01/24 06:37:51;;;;;;;34.55;20.25;;;2.50;99.90;;;;;;5040126;28;20037;-95
2023/01/24 06:40:25;;;;;;;38.83;20.95;;;2.50;99.90;;;;;;5073537;28;20025;-94
2023/01/24 06:42:52;;;;;;;34.53;20.85;;;2.50;99.90;;;;;;5040168;28;20515;-96
2023/01/24 06:45:19;;;;;;;36.10;21.75;;;2.50;99.90;;;;;;5023495;28;20048;-94
2023/01/24 06:47:45;;;;;;;36.40;20.73;;;2.50;99.90;;;;;;5041564;28;20017;-94
2023/01/24 06:50:15;;;;;;;33.45;18.17;;;2.50;99.90;;;;;;5040863;28;20029;-95
2023/01/24 06:52:41;;;;;;;35.55;20.65;;;2.50;99.90;;;;;;5037528;28;20039;-95
2023/01/24 06:55:06;;;;;;;36.42;21.58;;;2.50;99.90;;;;;;5035583;28;20108;-95
2023/01/24 06:57:32;;;;;;;32.47;19.83;;;2.50;99.90;;;;;;5078015;28;20062;-94
2023/01/24 06:59:58;;;;;;;36.40;21.15;;;2.50;99.90;;;;;;5029199;28;20088;-95
2023/01/24 07:02:23;;;;;;;34.53;18.80;;;2.50;99.90;;;;;;5039211;28;20108;-94
2023/01/24 07:04:49;;;;;;;39.63;21.52;;;2.50;99.90;;;;;;5042466;28;20057;-94
2023/01/24 07:07:14;;;;;;;36.30;20.33;;;2.40;99.90;;;;;;5044773;28;20201;-94
2023/01/24 07:09:40;;;;;;;36.13;20.92;;;2.40;99.90;;;;;;5036275;28;20024;-94
2023/01/24 07:12:06;;;;;;;38.70;22.90;;;2.40;99.90;;;;;;5039343;28;20021;-96
2023/01/24 07:14:31;;;;;;;38.05;21.88;;;2.40;99.90;;;;;;5041410;28;20131;-95
2023/01/24 07:16:57;;;;;;;40.10;22.23;;;2.40;99.90;;;;;;5032106;28;20021;-95
2023/01/24 07:19:25;;;;;;;38.80;21.73;;;2.40;99.90;;;;;;5032273;28;20029;-95
2023/01/24 07:21:53;;;;;;;37.10;21.83;;;2.50;99.90;;;;;;5041332;28;20103;-96
2023/01/24 07:24:22;;;;;;;40.58;22.80;;;2.50;99.90;;;;;;5044244;28;20037;-95
2023/01/24 07:26:50;;;;;;;38.78;22.15;;;2.50;99.90;;;;;;5025863;28;20040;-94
2023/01/24 07:29:17;;;;;;;36.78;21.98;;;2.50;99.90;;;;;;5038752;28;20041;-95
2023/01/24 07:31:44;;;;;;;37.95;21.55;;;2.50;99.90;;;;;;5040334;28;20028;-94
2023/01/24 07:34:11;;;;;;;38.78;22.67;;;2.50;99.90;;;;;;5044479;28;20041;-95
2023/01/24 07:36:37;;;;;;;39.10;21.75;;;2.40;99.90;;;;;;5042240;28;20252;-96
2023/01/24 07:39:02;;;;;;;35.55;21.58;;;2.40;99.90;;;;;;5039491;28;20044;-94
2023/01/24 07:41:28;;;;;;;38.83;21.80;;;2.40;99.90;;;;;;5074224;28;20032;-94
2023/01/24 07:43:55;;;;;;;42.38;22.92;;;2.40;99.90;;;;;;5039321;28;20085;-95
2023/01/24 07:46:20;;;;;;;37.42;22.30;;;2.40;99.90;;;;;;5041131;28;20039;-96
2023/01/24 07:48:46;;;;;;;38.88;21.23;;;2.40;99.90;;;;;;5044499;28;20459;-96
2023/01/24 07:51:12;;;;;;;40.33;22.50;;;2.40;99.90;;;;;;5043916;28;20032;-96
2023/01/24 07:53:37;;;;;;;38.58;20.92;;;2.30;99.90;;;;;;5075771;28;20355;-95
2023/01/24 07:56:05;;;;;;;39.45;21.63;;;2.30;99.90;;;;;;5052019;28;20061;-95
2023/01/24 07:58:31;;;;;;;36.72;19.90;;;2.30;99.90;;;;;;5028936;28;20029;-95
2023/01/24 08:00:57;;;;;;;42.80;22.75;;;2.30;99.90;;;;;;5040244;28;20032;-96
2023/01/24 08:03:22;;;;;;;34.42;20.33;;;2.30;99.90;;;;;;5039274;28;20030;-96
2023/01/24 08:05:49;;;;;;;42.00;22.67;;;2.40;99.90;;;;;;5035884;28;20054;-95
2023/01/24 08:08:15;;;;;;;38.20;22.17;;;2.30;99.90;;;;;;5043167;28;20033;-95
2023/01/24 08:10:40;;;;;;;38.17;22.25;;;2.40;99.90;;;;;;5040204;28;20021;-96
2023/01/24 08:13:06;;;;;;;41.75;21.95;;;2.40;99.90;;;;;;5044462;28;20041;-96
2023/01/24 08:15:31;;;;;;;41.50;22.35;;;2.40;99.90;;;;;;5059533;28;20063;-96
2023/01/24 08:17:58;;;;;;;38.65;21.95;;;2.40;99.90;;;;;;5043668;28;20029;-96
2023/01/24 08:20:29;;;;;;;44.95;23.80;;;2.40;99.90;;;;;;5074340;28;20066;-94
2023/01/24 08:22:57;;;;;;;37.15;21.13;;;2.40;99.90;;;;;;5037683;28;20052;-95
2023/01/24 08:25:24;;;;;;;37.53;21.17;;;2.40;99.90;;;;;;5039559;28;20116;-95
2023/01/24 08:27:50;;;;;;;39.33;22.13;;;2.40;99.90;;;;;;5034756;28;20027;-96
2023/01/24 08:30:16;;;;;;;36.35;20.85;;;2.40;99.90;;;;;;5040360;28;20025;-95
2023/01/24 08:32:41;;;;;;;37.75;19.92;;;2.40;99.90;;;;;;5074054;28;20467;-95
2023/01/24 08:35:08;;;;;;;35.97;21.17;;;2.40;99.90;;;;;;5042189;28;20033;-95
2023/01/24 08:37:34;;;;;;;43.28;23.45;;;2.40;99.90;;;;;;5042937;28;20499;-95
2023/01/24 08:40:00;;;;;;;39.78;21.90;;;2.40;99.90;;;;;;5074593;28;20025;-95
2023/01/24 08:42:25;;;;;;;41.30;22.73;;;2.40;99.90;;;;;;5041594;28;20025;-95
2023/01/24 08:44:51;;;;;;;34.13;20.48;;;2.40;99.90;;;;;;5042561;28;20029;-96
2023/01/24 08:47:17;;;;;;;40.47;21.70;;;2.40;99.90;;;;;;5037392;28;20022;-94
2023/01/24 08:49:43;;;;;;;34.30;20.80;;;2.40;99.90;;;;;;5027766;28;20033;-94
2023/01/24 08:52:09;;;;;;;39.10;22.33;;;2.40;99.90;;;;;;5038071;28;20027;-93
2023/01/24 08:54:35;;;;;;;36.45;18.98;;;2.40;99.90;;;;;;5084393;28;20041;-94
2023/01/24 08:57:02;;;;;;;40.60;21.55;;;2.40;99.90;;;;;;5077090;28;20017;-95
2023/01/24 08:59:27;;;;;;;34.90;19.52;;;2.40;99.90;;;;;;5043023;28;21560;-93
2023/01/24 09:01:53;;;;;;;36.00;20.38;;;2.40;99.90;;;;;;5039310;28;20048;-93
2023/01/24 09:04:19;;;;;;;33.80;19.50;;;2.50;99.90;;;;;;5035708;28;20048;-94
2023/01/24 09:06:45;;;;;;;37.78;19.63;;;2.50;99.90;;;;;;5039459;28;20036;-95
2023/01/24 09:09:11;;;;;;;38.88;21.00;;;2.50;99.90;;;;;;5036707;28;20021;-94
2023/01/24 09:11:36;;;;;;;38.15;21.27;;;2.50;99.90;;;;;;5041721;28;20025;-96
2023/01/24 09:14:02;;;;;;;36.00;19.75;;;2.60;99.90;;;;;;5072081;28;20108;-95
2023/01/24 09:16:28;;;;;;;41.83;22.30;;;2.60;99.90;;;;;;5024353;28;20030;-95
2023/01/24 09:18:55;;;;;;;36.60;20.33;;;2.60;99.90;;;;;;5042502;28;20021;-95
2023/01/24 09:21:21;;;;;;;38.78;21.67;;;2.60;99.90;;;;;;5036713;28;20032;-95
2023/01/24 09:23:47;;;;;;;34.35;20.35;;;2.60;99.90;;;;;;5035100;28;20037;-95
2023/01/24 09:26:12;;;;;;;36.25;20.92;;;2.60;99.90;;;;;;5034774;28;20068;-96
2023/01/24 09:28:39;;;;;;;37.38;20.90;;;2.60;99.90;;;;;;5042056;28;20021;-96
2023/01/24 09:31:08;;;;;;;33.50;18.45;;;2.60;99.90;;;;;;5042951;28;20020;-96
2023/01/24 09:33:34;;;;;;;33.58;19.77;;;2.60;99.90;;;;;;5039393;28;20041;-96
2023/01/24 09:36:02;;;;;;;37.22;20.38;;;2.60;99.90;;;;;;5036006;28;20028;-96
2023/01/24 09:38:30;;;;;;;34.83;20.00;;;2.60;99.90;;;;;;5038750;28;20034;-95
2023/01/24 09:41:16;;;;;;;34.95;18.90;;;2.60;99.90;;;;;;5033070;28;20025;-95
2023/01/24 09:43:53;;;;;;;32.85;19.67;;;2.60;99.90;;;;;;5035438;28;20086;-96
2023/01/24 09:46:37;;;;;;;32.40;18.80;;;2.60;99.90;;;;;;5042782;28;20036;-96
2023/01/24 09:49:21;;;;;;;33.45;19.63;;;2.60;99.90;;;;;;5035403;28;20048;-95
2023/01/24 09:51:50;;;;;;;32.83;19.20;;;2.60;99.90;;;;;;5043207;28;20056;-95
2023/01/24 09:54:38;;;;;;;31.88;18.67;;;2.60;99.90;;;;;;5036812;28;20040;-96
2023/01/24 09:57:17;;;;;;;36.58;20.27;;;2.70;99.90;;;;;;5028707;28;20033;-96
2023/01/24 09:59:50;;;;;;;36.22;19.50;;;2.70;99.90;;;;;;5033635;28;20048;-96
2023/01/24 10:02:18;;;;;;;32.45;18.67;;;2.80;99.90;;;;;;5029324;28;20075;-95
2023/01/24 10:04:46;;;;;;;36.70;19.33;;;2.90;99.90;;;;;;5037830;28;20021;-96
2023/01/24 10:07:23;;;;;;;33.72;19.33;;;2.90;99.90;;;;;;5036760;28;20477;-95
2023/01/24 10:09:54;;;;;;;34.70;20.25;;;3.10;99.90;;;;;;5034398;28;20025;-95
2023/01/24 10:12:40;;;;;;;32.42;19.35;;;3.10;99.90;;;;;;5040913;28;20504;-95
2023/01/24 10:15:27;;;;;;;27.27;16.10;;;3.10;99.90;;;;;;5045442;28;20025;-96
2023/01/24 10:18:06;;;;;;;33.35;19.38;;;3.10;99.90;;;;;;5044590;28;20017;-95
2023/01/24 10:20:51;;;;;;;33.22;19.52;;;3.10;99.90;;;;;;5039041;28;20032;-96
2023/01/24 10:23:24;;;;;;;32.92;19.05;;;3.10;99.90;;;;;;5034920;28;20099;-95
2023/01/24 10:25:55;;;;;;;31.20;18.85;;;3.10;99.90;;;;;;5031144;28;20036;-96
2023/01/24 10:28:40;;;;;;;28.33;17.52;;;3.00;99.90;;;;;;5042597;28;20029;-95
2023/01/24 10:31:18;;;;;;;30.02;18.10;;;3.00;99.90;;;;;;5035496;28;20033;-96
2023/01/24 10:33:50;;;;;;;33.50;19.52;;;3.00;99.90;;;;;;5035834;28;20485;-96
2023/01/24 10:36:43;;;;;;;35.45;19.55;;;3.00;99.90;;;;;;5043718;28;20032;-95
2023/01/24 10:39:11;;;;;;;27.45;16.48;;;3.00;99.90;;;;;;5034125;28;20033;-96
2023/01/24 10:41:37;;;;;;;31.40;18.88;;;3.00;99.90;;;;;;5027710;28;20021;-96
2023/01/24 10:44:10;;;;;;;31.95;18.63;;;2.90;99.90;;;;;;5070805;28;20021;-95
2023/01/24 10:47:07;;;;;;;29.67;18.52;;;2.90;99.90;;;;;;5042102;28;20032;-95
2023/01/24 10:49:36;;;;;;;31.58;18.27;;;3.00;99.90;;;;;;5036385;28;20026;-95
2023/01/24 10:52:14;;;;;;;28.42;18.33;;;2.90;99.90;;;;;;5028532;28;20025;-96
2023/01/24 10:54:44;;;;;;;27.38;16.73;;;2.90;99.90;;;;;;5066245;28;20037;-96
2023/01/24 10:57:28;;;;;;;30.65;19.17;;;2.90;99.90;;;;;;5041890;28;20116;-96
2023/01/24 10:59:54;;;;;;;26.27;16.17;;;2.90;99.90;;;;;;5033604;28;20025;-95
2023/01/24 11:02:24;;;;;;;31.35;17.65;;;2.90;99.90;;;;;;5074018;28;20535;-95
2023/01/24 11:05:01;;;;;;;27.27;15.40;;;2.90;99.90;;;;;;5055091;28;20024;-95
2023/01/24 11:07:30;;;;;;;27.77;16.42;;;2.90;99.90;;;;;;5041271;28;20440;-95
2023/01/24 11:10:00;;;;;;;26.63;15.95;;;2.90;99.90;;;;;;5037497;28;20018;-95
2023/01/24 11:12:26;;;;;;;25.23;16.77;;;3.00;99.90;;;;;;5036633;28;20033;-96
2023/01/24 11:14:52;;;;;;;28.65;17.23;;;3.00;99.90;;;;;;5043555;28;20021;-96
2023/01/24 11:17:34;;;;;;;26.13;15.55;;;3.10;99.90;;;;;;5073659;28;20049;-96
2023/01/24 11:20:20;;;;;;;23.92;15.20;;;3.10;99.90;;;;;;5059649;28;20053;-96
2023/01/24 11:22:50;;;;;;;31.00;16.90;;;3.10;99.90;;;;;;5038173;28;20128;-95
2023/01/24 11:25:17;;;;;;;24.42;14.43;;;3.20;99.90;;;;;;5051778;28;20060;-95
2023/01/24 11:27:48;;;;;;;28.25;16.42;;;3.20;99.90;;;;;;5019683;28;20044;-95
2023/01/24 11:32:48;;;;;;;29.48;17.13;;;3.20;99.90;;;;;;5057560;22;20095;-70
2023/01/24 11:35:41;;;;;;;25.33;14.15;;;3.30;99.90;;;;;;5041641;28;20033;-70
2023/01/24 11:38:34;;;;;;;25.65;16.20;;;3.20;99.90;;;;;;5048208;28;20040;-70
2023/01/24 11:41:34;;;;;;;25.65;16.08;;;3.20;99.90;;;;;;5044556;28;20086;-70
2023/01/24 11:44:33;;;;;;;29.13;17.05;;;3.20;99.90;;;;;;5041155;28;20527;-70
2023/01/24 11:47:20;;;;;;;24.75;15.00;;;3.10;99.90;;;;;;5045509;28;20029;-70
2023/01/24 11:50:34;;;;;;;26.75;15.55;;;3.10;99.90;;;;;;5045503;28;20116;-70
2023/01/24 11:53:10;;;;;;;;;;;3.20;99.90;;;;;;5031077;28;20098;-70
2023/01/24 11:55:46;;;;;;;24.25;14.00;;;3.20;99.90;;;;;;5040900;28;19954;-70
2023/01/24 11:58:38;;;;;;;27.27;15.88;;;3.20;99.90;;;;;;5040086;28;20043;-70
2023/01/24 12:01:39;;;;;;;26.63;15.63;;;3.20;99.90;;;;;;5050188;28;20033;-70
2023/01/24 12:04:35;;;;;;;27.50;16.58;;;3.30;99.90;;;;;;5045578;28;20398;-70
2023/01/24 12:07:12;;;;;;;25.10;15.05;;;3.20;99.90;;;;;;5044583;28;20025;-70
2023/01/24 12:10:15;;;;;;;25.65;15.05;;;3.30;99.90;;;;;;5050212;28;20106;-70
2023/01/24 12:12:51;;;;;;;26.75;15.40;;;3.40;99.90;;;;;;5044294;28;20480;-70
2023/01/24 12:15:43;;;;;;;26.90;16.13;;;3.40;99.90;;;;;;5047840;28;20035;-70
2023/01/24 12:18:43;;;;;;;27.05;15.18;;;3.40;99.90;;;;;;5046121;28;20044;-70
2023/01/24 12:21:09;;;;;;;24.63;14.60;;;3.40;99.90;;;;;;5041572;28;20025;-70
2023/01/24 12:23:53;;;;;;;24.92;15.55;;;3.40;99.90;;;;;;5044119;28;20048;-70
2023/01/24 12:26:57;;;;;;;23.65;14.20;;;3.40;99.90;;;;;;5045963;28;20520;-70
2023/01/24 12:29:28;;;;;;;23.45;12.70;;;3.40;99.90;;;;;;5036926;28;20040;-70
2023/01/24 12:32:05;;;;;;;22.60;13.45;;;3.40;99.90;;;;;;5050483;28;20056;-70
2023/01/24 12:34:54;;;;;;;24.42;14.38;;;3.40;99.90;;;;;;5035320;28;20033;-70
2023/01/24 12:37:19;;;;;;;22.42;13.85;;;3.40;99.90;;;;;;5049044;28;20029;-70
2023/01/24 12:40:11;;;;;;;19.08;11.75;;;3.40;99.90;;;;;;5050534;28;20040;-70
2023/01/24 12:43:01;;;;;;;19.83;12.18;;;3.50;99.90;;;;;;5037268;28;20033;-70
2023/01/24 12:45:52;;;;;;;18.25;11.13;;;3.50;99.90;;;;;;5051243;28;20116;-70
2023/01/24 12:48:47;;;;;;;17.23;9.93;;;3.60;99.90;;;;;;5052382;28;20032;-70
2023/01/24 12:51:23;;;;;;;20.83;12.40;;;3.60;99.90;;;;;;5047435;28;20032;-70
2023/01/24 12:54:11;;;;;;;19.25;11.98;;;3.60;99.90;;;;;;5049647;28;20052;-70
2023/01/24 12:56:49;;;;;;;23.00;12.88;;;3.60;99.90;;;;;;5041325;28;20032;-70
2023/01/24 12:59:22;;;;;;;20.88;11.95;;;3.50;99.90;;;;;;5041901;28;20036;-70
2023/01/24 13:01:47;;;;;;;;;;;3.40;99.90;;;;;;5043257;28;20047;-70
2023/01/24 13:04:41;;;;;;;20.35;10.85;;;3.40;99.90;;;;;;5050964;28;19913;-70
2023/01/24 13:07:28;;;;;;;19.13;11.73;;;3.30;99.90;;;;;;5051799;28;20056;-70
2023/01/24 13:10:14;;;;;;;18.95;11.57;;;3.30;99.90;;;;;;5050413;28;20429;-70
2023/01/24 13:12:42;;;;;;;20.10;12.25;;;3.30;99.90;;;;;;5040562;28;20430;-70
2023/01/24 13:15:20;;;;;;;17.92;11.23;;;3.30;99.90;;;;;;5045679;28;20028;-72
2023/01/24 13:18:08;;;;;;;19.40;11.50;;;3.30;99.90;;;;;;5047372;28;20541;-72
2023/01/24 13:21:06;;;;;;;19.92;12.18;;;3.30;99.90;;;;;;5043808;28;20081;-72
2023/01/24 13:24:15;;;;;;;16.90;10.07;;;3.30;99.90;;;;;;5043107;28;20033;-72
2023/01/24 13:27:07;;;;;;;19.73;12.10;;;3.30;99.90;;;;;;5047338;28;20078;-72
2023/01/24 13:29:51;;;;;;;18.45;11.02;;;3.30;99.90;;;;;;5051523;28;20025;-72
2023/01/24 13:32:20;;;;;;;17.58;11.30;;;3.30;99.90;;;;;;5044405;28;20084;-72
2023/01/24 13:34:55;;;;;;;19.25;11.57;;;3.30;99.90;;;;;;5037682;28;20083;-72
2023/01/24 13:37:47;;;;;;;18.15;11.07;;;3.30;99.90;;;;;;5035431;28;20017;-72
2023/01/24 13:40:16;;;;;;;19.65;11.02;;;3.30;99.90;;;;;;5039316;28;20021;-73
2023/01/24 13:42:45;;;;;;;18.73;12.23;;;3.40;99.90;;;;;;5041915;28;20112;-72